ETD202 OEDF-OMAA
Flight info
| Callsign | ETD202 |
|---|---|
| Flight time | N/A |
| Altitude | 9000 |
| Route | LADNA N318 KAPUM Z522 ALNEV Q415 UKILI |
| Aircraft | A20N/M-SDE2E3FGHIRWXY/LB1 |
Departure
| Time | 2026-04-28 23:25 |
|---|---|
| Airport | King Fahd International Airport (OEDF) |
Arrival
| Time | N/A |
|---|---|
| Airport | Zayed International Airport (OMAA) |
| Time | Latitude | Longitude | Altitude | Speed | Heading |
|---|---|---|---|---|---|
| 2026-04-28 23:16 | 26.47262 | 49.79199 | 58 ft | 0 kts | 342° |
| 2026-04-28 23:17 | 26.47265 | 49.79198 | 58 ft | 2 kts | 342° |
| 2026-04-28 23:18 | 26.47296 | 49.79182 | 62 ft | 8 kts | 333° |
| 2026-04-28 23:18 | 26.47368 | 49.79151 | 57 ft | 14 kts | 343° |
| 2026-04-28 23:18 | 26.47473 | 49.79119 | 58 ft | 17 kts | 352° |
| 2026-04-28 23:18 | 26.47546 | 49.79202 | 60 ft | 16 kts | 75° |
| 2026-04-28 23:19 | 26.47578 | 49.79331 | 60 ft | 18 kts | 74° |
| 2026-04-28 23:19 | 26.47612 | 49.79476 | 66 ft | 20 kts | 75° |
| 2026-04-28 23:19 | 26.47654 | 49.79633 | 64 ft | 22 kts | 74° |
| 2026-04-28 23:19 | 26.47696 | 49.79799 | 68 ft | 23 kts | 75° |
| 2026-04-28 23:20 | 26.47740 | 49.79974 | 67 ft | 24 kts | 75° |
| 2026-04-28 23:20 | 26.47786 | 49.80159 | 71 ft | 25 kts | 74° |
| 2026-04-28 23:20 | 26.47837 | 49.80352 | 62 ft | 27 kts | 77° |
| 2026-04-28 23:20 | 26.47796 | 49.80514 | 71 ft | 23 kts | 136° |
| 2026-04-28 23:21 | 26.47675 | 49.80645 | 71 ft | 25 kts | 135° |
| 2026-04-28 23:21 | 26.47535 | 49.80774 | 73 ft | 27 kts | 165° |
| 2026-04-28 23:21 | 26.47355 | 49.80834 | 73 ft | 28 kts | 163° |
| 2026-04-28 23:21 | 26.47228 | 49.80876 | 67 ft | 29 kts | 163° |
| 2026-04-28 23:22 | 26.46382 | 49.81135 | 84 ft | 32 kts | 165° |
| 2026-04-28 23:23 | 26.46179 | 49.81197 | 83 ft | 30 kts | 165° |
| 2026-04-28 23:23 | 26.45994 | 49.81253 | 83 ft | 29 kts | 164° |
| 2026-04-28 23:23 | 26.45810 | 49.81311 | 83 ft | 28 kts | 164° |
| 2026-04-28 23:23 | 26.45618 | 49.81368 | 84 ft | 26 kts | 165° |
| 2026-04-28 23:24 | 26.45473 | 49.81425 | 85 ft | 16 kts | 152° |
| 2026-04-28 23:24 | 26.45456 | 49.81422 | 87 ft | 2 kts | 324° |
| 2026-04-28 23:24 | 26.45500 | 49.81405 | 86 ft | 11 kts | 344° |
| 2026-04-28 23:24 | 26.45833 | 49.81302 | 83 ft | 96 kts | 345° |
| 2026-04-28 23:25 | 26.46725 | 49.81024 | 104 ft | 166 kts | 344° |
| 2026-04-28 23:25 | 26.47920 | 49.80653 | 715 ft | 189 kts | 345° |
| 2026-04-28 23:25 | 26.49282 | 49.80238 | 1364 ft | 219 kts | 347° |
| 2026-04-28 23:25 | 26.50873 | 49.79765 | 2009 ft | 249 kts | 347° |
| 2026-04-28 23:26 | 26.52543 | 49.79273 | 2729 ft | 249 kts | 346° |
| 2026-04-28 23:26 | 26.54205 | 49.78763 | 2777 ft | 248 kts | 345° |
| 2026-04-28 23:26 | 26.55912 | 49.78225 | 2835 ft | 261 kts | 345° |
| 2026-04-28 23:26 | 26.57711 | 49.77667 | 3212 ft | 279 kts | 349° |
| 2026-04-28 23:27 | 26.59641 | 49.77736 | 4185 ft | 278 kts | 16° |
| 2026-04-28 23:27 | 26.61337 | 49.78771 | 5147 ft | 282 kts | 42° |
| 2026-04-28 23:27 | 26.62467 | 49.80547 | 6004 ft | 289 kts | 69° |
| 2026-04-28 23:27 | 26.62806 | 49.82760 | 6819 ft | 292 kts | 96° |
| 2026-04-28 23:28 | 26.62260 | 49.84941 | 7709 ft | 292 kts | 119° |
| 2026-04-28 23:28 | 26.61242 | 49.86925 | 8466 ft | 296 kts | 124° |
| 2026-04-28 23:28 | 26.60304 | 49.88964 | 8813 ft | 301 kts | 113° |
| 2026-04-28 23:28 | 26.59817 | 49.91253 | 8964 ft | 305 kts | 98° |
| 2026-04-28 23:29 | 26.59790 | 49.93630 | 8998 ft | 307 kts | 88° |
| 2026-04-28 23:29 | 26.60047 | 49.96011 | 8997 ft | 308 kts | 82° |
| 2026-04-28 23:29 | 26.60432 | 49.98369 | 8995 ft | 308 kts | 81° |
| 2026-04-28 23:29 | 26.60859 | 50.00716 | 9000 ft | 308 kts | 80° |
| 2026-04-28 23:30 | 26.61285 | 50.03040 | 8998 ft | 308 kts | 80° |
| 2026-04-28 23:30 | 26.61709 | 50.05393 | 8996 ft | 308 kts | 80° |
| 2026-04-28 23:30 | 26.62125 | 50.07741 | 8995 ft | 309 kts | 81° |
| 2026-04-28 23:30 | 26.62538 | 50.10103 | 8997 ft | 308 kts | 81° |
| 2026-04-28 23:31 | 26.62947 | 50.12455 | 8994 ft | 308 kts | 81° |
| 2026-04-28 23:31 | 26.63239 | 50.14818 | 8990 ft | 305 kts | 94° |
| 2026-04-28 23:31 | 26.62760 | 50.17093 | 8992 ft | 300 kts | 120° |
| 2026-04-28 23:31 | 26.61574 | 50.18962 | 8992 ft | 296 kts | 134° |
| 2026-04-28 23:32 | 26.60188 | 50.20665 | 8991 ft | 295 kts | 136° |
| 2026-04-28 23:32 | 26.58778 | 50.22338 | 8991 ft | 295 kts | 136° |
| 2026-04-28 23:32 | 26.57397 | 50.24002 | 8990 ft | 295 kts | 135° |
| 2026-04-28 23:32 | 26.56011 | 50.25711 | 8992 ft | 295 kts | 135° |
| 2026-04-28 23:33 | 26.54659 | 50.27403 | 8991 ft | 295 kts | 135° |
| 2026-04-28 23:33 | 26.53295 | 50.29126 | 8989 ft | 295 kts | 134° |
| 2026-04-28 23:33 | 26.51945 | 50.30835 | 8988 ft | 295 kts | 134° |
| 2026-04-28 23:33 | 26.50589 | 50.32553 | 8991 ft | 295 kts | 134° |
| 2026-04-28 23:34 | 26.49230 | 50.34274 | 8989 ft | 294 kts | 134° |
| 2026-04-28 23:34 | 26.47869 | 50.35996 | 8989 ft | 294 kts | 134° |
| 2026-04-28 23:34 | 26.46647 | 50.37801 | 8990 ft | 297 kts | 123° |
| 2026-04-28 23:34 | 26.45781 | 50.39906 | 8990 ft | 300 kts | 110° |
| 2026-04-28 23:35 | 26.45175 | 50.42139 | 8989 ft | 300 kts | 109° |
| 2026-04-28 23:35 | 26.44563 | 50.44368 | 8989 ft | 300 kts | 110° |
| 2026-04-28 23:35 | 26.43944 | 50.46591 | 8986 ft | 299 kts | 110° |
| 2026-04-28 23:35 | 26.43330 | 50.48784 | 8985 ft | 299 kts | 110° |
| 2026-04-28 23:36 | 26.42707 | 50.51006 | 8982 ft | 300 kts | 110° |
| 2026-04-28 23:36 | 26.42083 | 50.53228 | 8980 ft | 300 kts | 110° |
| 2026-04-28 23:36 | 26.41458 | 50.55456 | 8978 ft | 300 kts | 110° |
| 2026-04-28 23:36 | 26.40841 | 50.57654 | 8980 ft | 300 kts | 110° |
| 2026-04-28 23:37 | 26.40216 | 50.59878 | 8978 ft | 300 kts | 110° |
| 2026-04-28 23:37 | 26.39589 | 50.62101 | 8979 ft | 300 kts | 110° |
| 2026-04-28 23:37 | 26.38958 | 50.64328 | 8977 ft | 300 kts | 110° |
| 2026-04-28 23:37 | 26.38332 | 50.66530 | 8977 ft | 300 kts | 110° |
| 2026-04-28 23:38 | 26.37701 | 50.68753 | 8975 ft | 300 kts | 110° |
| 2026-04-28 23:38 | 26.37071 | 50.70973 | 8976 ft | 300 kts | 110° |
| 2026-04-28 23:38 | 26.36437 | 50.73203 | 8977 ft | 301 kts | 110° |
| 2026-04-28 23:38 | 26.35804 | 50.75430 | 8979 ft | 300 kts | 110° |
| 2026-04-28 23:39 | 26.35172 | 50.77649 | 8978 ft | 301 kts | 110° |
| 2026-04-28 23:39 | 26.34544 | 50.79850 | 8981 ft | 301 kts | 110° |
| 2026-04-28 23:39 | 26.33910 | 50.82071 | 8982 ft | 301 kts | 110° |
| 2026-04-28 23:39 | 26.33274 | 50.84301 | 8984 ft | 301 kts | 110° |
| 2026-04-28 23:40 | 26.32639 | 50.86524 | 8983 ft | 301 kts | 110° |
| 2026-04-28 23:40 | 26.32010 | 50.88723 | 8983 ft | 301 kts | 110° |
| 2026-04-28 23:40 | 26.31371 | 50.90957 | 8983 ft | 301 kts | 110° |
| 2026-04-28 23:40 | 26.30733 | 50.93186 | 8988 ft | 301 kts | 110° |
| 2026-04-28 23:41 | 26.29975 | 50.95327 | 8983 ft | 299 kts | 120° |
| 2026-04-28 23:41 | 26.28955 | 50.97357 | 8988 ft | 299 kts | 122° |
| 2026-04-28 23:41 | 26.27931 | 50.99379 | 8986 ft | 299 kts | 122° |
| 2026-04-28 23:41 | 26.26914 | 51.01400 | 8988 ft | 299 kts | 122° |
| 2026-04-28 23:42 | 26.25905 | 51.03410 | 8991 ft | 300 kts | 122° |
| 2026-04-28 23:42 | 26.24887 | 51.05437 | 8988 ft | 299 kts | 122° |
| 2026-04-28 23:42 | 26.23869 | 51.07464 | 8990 ft | 300 kts | 122° |
| 2026-04-28 23:42 | 26.22850 | 51.09494 | 8989 ft | 300 kts | 122° |
| 2026-04-28 23:43 | 26.21826 | 51.11531 | 8987 ft | 300 kts | 122° |
| 2026-04-28 23:43 | 26.20819 | 51.13536 | 8986 ft | 300 kts | 122° |
| 2026-04-28 23:43 | 26.19793 | 51.15575 | 8986 ft | 301 kts | 122° |
| 2026-04-28 23:43 | 26.18770 | 51.17608 | 8986 ft | 301 kts | 122° |
| 2026-04-28 23:44 | 26.17745 | 51.19645 | 8988 ft | 301 kts | 122° |
| 2026-04-28 23:44 | 26.16720 | 51.21679 | 8984 ft | 301 kts | 122° |
| 2026-04-28 23:44 | 26.15706 | 51.23692 | 8986 ft | 301 kts | 122° |
| 2026-04-28 23:44 | 26.14678 | 51.25730 | 8985 ft | 302 kts | 122° |
| 2026-04-28 23:45 | 26.13650 | 51.27769 | 8982 ft | 302 kts | 122° |
| 2026-04-28 23:45 | 26.12616 | 51.29818 | 8985 ft | 302 kts | 122° |
| 2026-04-28 23:45 | 26.11596 | 51.31838 | 8983 ft | 302 kts | 122° |
| 2026-04-28 23:45 | 26.10564 | 51.33882 | 8980 ft | 302 kts | 122° |
| 2026-04-28 23:46 | 26.09531 | 51.35927 | 8982 ft | 303 kts | 122° |
| 2026-04-28 23:46 | 26.08497 | 51.37971 | 8979 ft | 303 kts | 122° |
| 2026-04-28 23:46 | 26.07474 | 51.39994 | 8977 ft | 303 kts | 122° |
| 2026-04-28 23:46 | 26.06440 | 51.42037 | 8981 ft | 303 kts | 122° |
| 2026-04-28 23:47 | 26.05403 | 51.44085 | 8976 ft | 304 kts | 122° |
| 2026-04-28 23:47 | 26.04364 | 51.46135 | 8975 ft | 304 kts | 122° |
| 2026-04-28 23:47 | 26.03334 | 51.48166 | 8975 ft | 304 kts | 122° |
| 2026-04-28 23:47 | 26.02294 | 51.50218 | 8978 ft | 304 kts | 122° |
| 2026-04-28 23:48 | 26.01251 | 51.52274 | 8973 ft | 304 kts | 122° |
| 2026-04-28 23:48 | 26.00218 | 51.54310 | 8974 ft | 304 kts | 122° |
| 2026-04-28 23:48 | 25.99177 | 51.56360 | 8973 ft | 305 kts | 122° |
| 2026-04-28 23:48 | 25.98131 | 51.58418 | 8975 ft | 305 kts | 122° |
| 2026-04-28 23:49 | 25.97101 | 51.60446 | 8973 ft | 305 kts | 122° |
| 2026-04-28 23:49 | 25.96056 | 51.62501 | 8972 ft | 305 kts | 122° |
| 2026-04-28 23:49 | 25.95010 | 51.64557 | 8972 ft | 304 kts | 122° |
| 2026-04-28 23:49 | 25.93964 | 51.66611 | 8971 ft | 305 kts | 122° |
| 2026-04-28 23:50 | 25.92918 | 51.68666 | 8967 ft | 305 kts | 122° |
| 2026-04-28 23:50 | 25.91887 | 51.70691 | 8969 ft | 305 kts | 122° |
| 2026-04-28 23:50 | 25.90840 | 51.72744 | 8969 ft | 305 kts | 122° |
| 2026-04-28 23:50 | 25.89804 | 51.74805 | 8969 ft | 305 kts | 121° |
| 2026-04-28 23:51 | 25.88792 | 51.76879 | 8973 ft | 306 kts | 121° |
| 2026-04-28 23:51 | 25.87783 | 51.78960 | 8968 ft | 306 kts | 121° |
| 2026-04-28 23:51 | 25.86771 | 51.81044 | 8966 ft | 306 kts | 121° |
| 2026-04-28 23:51 | 25.85756 | 51.83124 | 8964 ft | 306 kts | 121° |
| 2026-04-28 23:52 | 25.84740 | 51.85204 | 8966 ft | 306 kts | 121° |
| 2026-04-28 23:52 | 25.83728 | 51.87284 | 8966 ft | 307 kts | 119° |
| 2026-04-28 23:52 | 25.82831 | 51.89411 | 8969 ft | 308 kts | 117° |
| 2026-04-28 23:52 | 25.81925 | 51.91581 | 8968 ft | 308 kts | 117° |
| 2026-04-28 23:53 | 25.81019 | 51.93742 | 8968 ft | 307 kts | 117° |
| 2026-04-28 23:53 | 25.80126 | 51.95870 | 8971 ft | 308 kts | 117° |
| 2026-04-28 23:53 | 25.79220 | 51.98025 | 8968 ft | 308 kts | 117° |
| 2026-04-28 23:53 | 25.78312 | 52.00183 | 8967 ft | 308 kts | 117° |
| 2026-04-28 23:54 | 25.77407 | 52.02335 | 8970 ft | 308 kts | 117° |
| 2026-04-28 23:54 | 25.76498 | 52.04494 | 8972 ft | 308 kts | 118° |
| 2026-04-28 23:54 | 25.75602 | 52.06621 | 8967 ft | 308 kts | 118° |
| 2026-04-28 23:54 | 25.74692 | 52.08781 | 8969 ft | 308 kts | 118° |
| 2026-04-28 23:55 | 25.73779 | 52.10944 | 8968 ft | 308 kts | 118° |
| 2026-04-28 23:55 | 25.72871 | 52.13099 | 8970 ft | 308 kts | 118° |
| 2026-04-28 23:55 | 25.71973 | 52.15227 | 8965 ft | 308 kts | 118° |
| 2026-04-28 23:55 | 25.71063 | 52.17382 | 8966 ft | 307 kts | 118° |
| 2026-04-28 23:56 | 25.70157 | 52.19526 | 8966 ft | 308 kts | 118° |
| 2026-04-28 23:56 | 25.69246 | 52.21678 | 8964 ft | 308 kts | 118° |
| 2026-04-28 23:56 | 25.68334 | 52.23837 | 8966 ft | 309 kts | 118° |
| 2026-04-28 23:56 | 25.67420 | 52.25997 | 8967 ft | 309 kts | 118° |
| 2026-04-28 23:57 | 25.66505 | 52.28158 | 8966 ft | 309 kts | 118° |
| 2026-04-28 23:57 | 25.65588 | 52.30323 | 8966 ft | 310 kts | 118° |
| 2026-04-28 23:57 | 25.64684 | 52.32455 | 8966 ft | 309 kts | 118° |
| 2026-04-28 23:57 | 25.63769 | 52.34614 | 8963 ft | 309 kts | 118° |
| 2026-04-28 23:58 | 25.62854 | 52.36771 | 8964 ft | 309 kts | 118° |
| 2026-04-28 23:58 | 25.61936 | 52.38931 | 8964 ft | 310 kts | 119° |
| 2026-04-28 23:58 | 25.60902 | 52.41018 | 8964 ft | 308 kts | 123° |
| 2026-04-28 23:58 | 25.59852 | 52.43092 | 8965 ft | 308 kts | 122° |
| 2026-04-28 23:59 | 25.58808 | 52.45160 | 8964 ft | 307 kts | 122° |
| 2026-04-28 23:59 | 25.57774 | 52.47213 | 8963 ft | 308 kts | 122° |
| 2026-04-28 23:59 | 25.56732 | 52.49280 | 8964 ft | 308 kts | 122° |
| 2026-04-28 23:59 | 25.55683 | 52.51358 | 8963 ft | 307 kts | 122° |
| 2026-04-29 00:00 | 25.54639 | 52.53426 | 8963 ft | 308 kts | 122° |
| 2026-04-29 00:00 | 25.53592 | 52.55496 | 8962 ft | 308 kts | 122° |
| 2026-04-29 00:00 | 25.52546 | 52.57566 | 8962 ft | 307 kts | 122° |
| 2026-04-29 00:00 | 25.51499 | 52.59635 | 8963 ft | 308 kts | 122° |
| 2026-04-29 00:01 | 25.50450 | 52.61709 | 8966 ft | 308 kts | 122° |
| 2026-04-29 00:01 | 25.49755 | 52.63082 | 8958 ft | 308 kts | 122° |
| 2026-04-29 00:01 | 25.48708 | 52.65150 | 8959 ft | 308 kts | 122° |
| 2026-04-29 00:01 | 25.47322 | 52.67885 | 8960 ft | 307 kts | 122° |
| 2026-04-29 00:02 | 25.46274 | 52.69950 | 8960 ft | 307 kts | 122° |
| 2026-04-29 00:02 | 25.45226 | 52.72016 | 8967 ft | 307 kts | 122° |
| 2026-04-29 00:02 | 25.44174 | 52.74043 | 8959 ft | 307 kts | 124° |
| 2026-04-29 00:02 | 25.43069 | 52.76063 | 8964 ft | 306 kts | 125° |
| 2026-04-29 00:03 | 25.42316 | 52.77419 | 8964 ft | 305 kts | 125° |
| 2026-04-29 00:03 | 25.40845 | 52.80071 | 8963 ft | 305 kts | 124° |
| 2026-04-29 00:03 | 25.39729 | 52.82072 | 8971 ft | 306 kts | 125° |
| 2026-04-29 00:03 | 25.38987 | 52.83398 | 8962 ft | 305 kts | 125° |
| 2026-04-29 00:04 | 25.37870 | 52.85395 | 8966 ft | 305 kts | 125° |
| 2026-04-29 00:04 | 25.36756 | 52.87391 | 8965 ft | 304 kts | 125° |
| 2026-04-29 00:04 | 25.35286 | 52.90028 | 8959 ft | 304 kts | 124° |
| 2026-04-29 00:04 | 25.34536 | 52.91373 | 8961 ft | 304 kts | 124° |
| 2026-04-29 00:05 | 25.33428 | 52.93360 | 8963 ft | 304 kts | 124° |
| 2026-04-29 00:05 | 25.32334 | 52.95323 | 8960 ft | 304 kts | 124° |
| 2026-04-29 00:05 | 25.31302 | 52.97369 | 8963 ft | 305 kts | 117° |
| 2026-04-29 00:05 | 25.30436 | 52.99514 | 8963 ft | 305 kts | 117° |
| 2026-04-29 00:06 | 25.29566 | 53.01656 | 8962 ft | 305 kts | 117° |
| 2026-04-29 00:06 | 25.28699 | 53.03778 | 8961 ft | 305 kts | 117° |
| 2026-04-29 00:06 | 25.27821 | 53.05924 | 8963 ft | 305 kts | 117° |
| 2026-04-29 00:06 | 25.26952 | 53.08048 | 8961 ft | 305 kts | 117° |
| 2026-04-29 00:07 | 25.26074 | 53.10192 | 8961 ft | 305 kts | 117° |
| 2026-04-29 00:07 | 25.25208 | 53.12306 | 8961 ft | 305 kts | 117° |
| 2026-04-29 00:07 | 25.24329 | 53.14450 | 8959 ft | 305 kts | 117° |
| 2026-04-29 00:07 | 25.23460 | 53.16569 | 8963 ft | 304 kts | 117° |
| 2026-04-29 00:08 | 25.22582 | 53.18708 | 8966 ft | 304 kts | 117° |
| 2026-04-29 00:08 | 25.21715 | 53.20820 | 8965 ft | 305 kts | 117° |
| 2026-04-29 00:08 | 25.20834 | 53.22963 | 8964 ft | 304 kts | 117° |
| 2026-04-29 00:08 | 25.19967 | 53.25073 | 8965 ft | 304 kts | 117° |
| 2026-04-29 00:09 | 25.19087 | 53.27214 | 8965 ft | 305 kts | 117° |
| 2026-04-29 00:09 | 25.18213 | 53.29325 | 8963 ft | 304 kts | 119° |
| 2026-04-29 00:09 | 25.17124 | 53.31311 | 8969 ft | 301 kts | 130° |
| 2026-04-29 00:09 | 25.15792 | 53.33097 | 8968 ft | 300 kts | 133° |
| 2026-04-29 00:10 | 25.14469 | 53.34850 | 8968 ft | 300 kts | 133° |
| 2026-04-29 00:10 | 25.13134 | 53.36631 | 8968 ft | 300 kts | 132° |
| 2026-04-29 00:10 | 25.11811 | 53.38401 | 8966 ft | 300 kts | 132° |
| 2026-04-29 00:10 | 25.10476 | 53.40187 | 8966 ft | 300 kts | 132° |
| 2026-04-29 00:11 | 25.09158 | 53.41948 | 8968 ft | 300 kts | 132° |
| 2026-04-29 00:11 | 25.07821 | 53.43733 | 8967 ft | 301 kts | 132° |
| 2026-04-29 00:11 | 25.05235 | 53.47185 | 8967 ft | 301 kts | 132° |
| 2026-04-29 00:12 | 25.03914 | 53.48947 | 8968 ft | 301 kts | 132° |
| 2026-04-29 00:12 | 25.02576 | 53.50729 | 8966 ft | 300 kts | 132° |
| 2026-04-29 00:12 | 25.01257 | 53.52487 | 8968 ft | 301 kts | 132° |
| 2026-04-29 00:12 | 24.99920 | 53.54267 | 8968 ft | 302 kts | 132° |
| 2026-04-29 00:13 | 24.98573 | 53.56062 | 8967 ft | 301 kts | 132° |
| 2026-04-29 00:13 | 24.97135 | 53.57709 | 8967 ft | 299 kts | 143° |
| 2026-04-29 00:13 | 24.95408 | 53.58969 | 8964 ft | 296 kts | 156° |
| 2026-04-29 00:13 | 24.93566 | 53.59936 | 8963 ft | 295 kts | 158° |
| 2026-04-29 00:14 | 24.91708 | 53.60919 | 8964 ft | 295 kts | 157° |
| 2026-04-29 00:14 | 24.89854 | 53.61908 | 8963 ft | 295 kts | 157° |
| 2026-04-29 00:14 | 24.88023 | 53.62887 | 8967 ft | 295 kts | 157° |
| 2026-04-29 00:14 | 24.86177 | 53.63874 | 8966 ft | 295 kts | 157° |
| 2026-04-29 00:15 | 24.84319 | 53.64868 | 8963 ft | 295 kts | 157° |
| 2026-04-29 00:15 | 24.82464 | 53.65858 | 8960 ft | 295 kts | 157° |
| 2026-04-29 00:15 | 24.80627 | 53.66839 | 8959 ft | 295 kts | 157° |
| 2026-04-29 00:15 | 24.78768 | 53.67830 | 8965 ft | 295 kts | 157° |
| 2026-04-29 00:16 | 24.77047 | 53.69032 | 8964 ft | 299 kts | 141° |
| 2026-04-29 00:16 | 24.75715 | 53.70805 | 8965 ft | 302 kts | 122° |
| 2026-04-29 00:16 | 24.74707 | 53.72815 | 8964 ft | 303 kts | 121° |
| 2026-04-29 00:16 | 24.73685 | 53.74852 | 8963 ft | 303 kts | 121° |
| 2026-04-29 00:17 | 24.72671 | 53.76859 | 8962 ft | 303 kts | 121° |
| 2026-04-29 00:17 | 24.71640 | 53.78890 | 8962 ft | 302 kts | 121° |
| 2026-04-29 00:17 | 24.70611 | 53.80914 | 8964 ft | 302 kts | 121° |
| 2026-04-29 00:17 | 24.69591 | 53.82917 | 8966 ft | 303 kts | 121° |
| 2026-04-29 00:18 | 24.68557 | 53.84946 | 8959 ft | 302 kts | 121° |
| 2026-04-29 00:18 | 24.67533 | 53.86956 | 8961 ft | 302 kts | 121° |
| 2026-04-29 00:18 | 24.66498 | 53.88984 | 8958 ft | 303 kts | 121° |
| 2026-04-29 00:18 | 24.65477 | 53.90987 | 8962 ft | 303 kts | 121° |
| 2026-04-29 00:19 | 24.64441 | 53.93017 | 8961 ft | 303 kts | 121° |
| 2026-04-29 00:19 | 24.63588 | 53.95110 | 8960 ft | 304 kts | 110° |
| 2026-04-29 00:19 | 24.63029 | 53.97368 | 8961 ft | 305 kts | 105° |
| 2026-04-29 00:19 | 24.62503 | 53.99605 | 8962 ft | 305 kts | 106° |
| 2026-04-29 00:20 | 24.61963 | 54.01869 | 8961 ft | 305 kts | 106° |
| 2026-04-29 00:20 | 24.61420 | 54.04128 | 8953 ft | 304 kts | 106° |
| 2026-04-29 00:20 | 24.60887 | 54.06346 | 8773 ft | 302 kts | 106° |
| 2026-04-29 00:20 | 24.60349 | 54.08576 | 8448 ft | 300 kts | 106° |
| 2026-04-29 00:21 | 24.59819 | 54.10772 | 8121 ft | 297 kts | 105° |
| 2026-04-29 00:21 | 24.59291 | 54.12960 | 7995 ft | 297 kts | 105° |
| 2026-04-29 00:21 | 24.58760 | 54.15163 | 7960 ft | 298 kts | 105° |
| 2026-04-29 00:21 | 24.58064 | 54.17308 | 7960 ft | 297 kts | 117° |
| 2026-04-29 00:22 | 24.56993 | 54.19204 | 7892 ft | 294 kts | 129° |
| 2026-04-29 00:22 | 24.55721 | 54.20970 | 7644 ft | 292 kts | 129° |
| 2026-04-29 00:22 | 24.54458 | 54.22735 | 7257 ft | 293 kts | 129° |
| 2026-04-29 00:22 | 24.53222 | 54.24473 | 6902 ft | 290 kts | 128° |
| 2026-04-29 00:23 | 24.51975 | 54.26231 | 6559 ft | 288 kts | 128° |
| 2026-04-29 00:23 | 24.50771 | 54.27929 | 6444 ft | 275 kts | 128° |
| 2026-04-29 00:23 | 24.49619 | 54.29555 | 6281 ft | 266 kts | 128° |
| 2026-04-29 00:23 | 24.48513 | 54.31181 | 5956 ft | 264 kts | 119° |
| 2026-04-29 00:24 | 24.47998 | 54.33066 | 5634 ft | 259 kts | 90° |
| 2026-04-29 00:24 | 24.48358 | 54.34969 | 5322 ft | 254 kts | 62° |
| 2026-04-29 00:24 | 24.49460 | 54.36410 | 5006 ft | 250 kts | 38° |
| 2026-04-29 00:24 | 24.50889 | 54.37504 | 4699 ft | 249 kts | 32° |
| 2026-04-29 00:25 | 24.52341 | 54.38520 | 4491 ft | 243 kts | 33° |
| 2026-04-29 00:25 | 24.53642 | 54.39594 | 4399 ft | 232 kts | 43° |
| 2026-04-29 00:25 | 24.54702 | 54.40863 | 4311 ft | 219 kts | 48° |
| 2026-04-29 00:25 | 24.55685 | 54.42102 | 4209 ft | 207 kts | 48° |
| 2026-04-29 00:26 | 24.56591 | 54.43269 | 4067 ft | 200 kts | 52° |
| 2026-04-29 00:26 | 24.57094 | 54.44682 | 3780 ft | 203 kts | 86° |
| 2026-04-29 00:26 | 24.56741 | 54.46182 | 3526 ft | 208 kts | 122° |
| 2026-04-29 00:26 | 24.56064 | 54.47131 | 3460 ft | 201 kts | 126° |